sensor_id;sensor_type;location;lat;lon;timestamp;P1;durP1;ratioP1;P2;durP2;ratioP2
16294;SDS011;8255;49.560;8.244;2023-03-31T00:01:03;3.40;;;1.70;;
16294;SDS011;8255;49.560;8.244;2023-03-31T00:03:30;2.50;;;1.65;;
16294;SDS011;8255;49.560;8.244;2023-03-31T00:05:58;4.22;;;1.65;;
16294;SDS011;8255;49.560;8.244;2023-03-31T00:08:25;3.70;;;1.70;;
16294;SDS011;8255;49.560;8.244;2023-03-31T00:10:57;4.88;;;2.13;;
16294;SDS011;8255;49.560;8.244;2023-03-31T00:13:23;6.45;;;1.67;;
16294;SDS011;8255;49.560;8.244;2023-03-31T00:15:54;3.45;;;1.48;;
16294;SDS011;8255;49.560;8.244;2023-03-31T00:18:21;3.10;;;1.60;;
16294;SDS011;8255;49.560;8.244;2023-03-31T00:20:51;4.55;;;1.90;;
16294;SDS011;8255;49.560;8.244;2023-03-31T00:23:18;7.88;;;1.90;;
16294;SDS011;8255;49.560;8.244;2023-03-31T00:25:52;7.32;;;1.80;;
16294;SDS011;8255;49.560;8.244;2023-03-31T00:28:18;4.40;;;2.35;;
16294;SDS011;8255;49.560;8.244;2023-03-31T00:30:45;5.90;;;1.63;;
16294;SDS011;8255;49.560;8.244;2023-03-31T00:33:11;5.25;;;1.92;;
16294;SDS011;8255;49.560;8.244;2023-03-31T00:35:37;3.60;;;1.58;;
16294;SDS011;8255;49.560;8.244;2023-03-31T00:38:05;8.57;;;1.90;;
16294;SDS011;8255;49.560;8.244;2023-03-31T00:40:33;4.93;;;1.60;;
16294;SDS011;8255;49.560;8.244;2023-03-31T00:42:59;3.33;;;1.90;;
16294;SDS011;8255;49.560;8.244;2023-03-31T00:45:27;5.63;;;1.70;;
16294;SDS011;8255;49.560;8.244;2023-03-31T00:47:56;6.47;;;1.75;;
16294;SDS011;8255;49.560;8.244;2023-03-31T00:50:23;7.88;;;1.58;;
16294;SDS011;8255;49.560;8.244;2023-03-31T00:52:53;7.38;;;1.67;;
16294;SDS011;8255;49.560;8.244;2023-03-31T00:55:22;4.90;;;1.85;;
16294;SDS011;8255;49.560;8.244;2023-03-31T00:57:50;3.88;;;1.60;;
16294;SDS011;8255;49.560;8.244;2023-03-31T01:00:17;6.95;;;2.45;;
16294;SDS011;8255;49.560;8.244;2023-03-31T01:02:46;5.72;;;2.72;;
16294;SDS011;8255;49.560;8.244;2023-03-31T01:05:17;6.10;;;2.05;;
16294;SDS011;8255;49.560;8.244;2023-03-31T01:07:44;4.20;;;1.70;;
16294;SDS011;8255;49.560;8.244;2023-03-31T01:10:12;4.07;;;1.67;;
16294;SDS011;8255;49.560;8.244;2023-03-31T01:12:41;6.78;;;2.00;;
16294;SDS011;8255;49.560;8.244;2023-03-31T01:15:09;5.38;;;1.65;;
16294;SDS011;8255;49.560;8.244;2023-03-31T01:17:35;7.32;;;2.03;;
16294;SDS011;8255;49.560;8.244;2023-03-31T01:20:04;4.95;;;1.80;;
16294;SDS011;8255;49.560;8.244;2023-03-31T01:22:47;4.50;;;1.90;;
16294;SDS011;8255;49.560;8.244;2023-03-31T01:25:26;4.28;;;1.77;;
16294;SDS011;8255;49.560;8.244;2023-03-31T01:28:02;4.45;;;1.73;;
16294;SDS011;8255;49.560;8.244;2023-03-31T01:30:40;3.78;;;1.80;;
16294;SDS011;8255;49.560;8.244;2023-03-31T01:33:17;6.15;;;1.70;;
16294;SDS011;8255;49.560;8.244;2023-03-31T01:35:57;6.30;;;2.08;;
16294;SDS011;8255;49.560;8.244;2023-03-31T01:38:32;6.53;;;1.75;;
16294;SDS011;8255;49.560;8.244;2023-03-31T01:41:07;4.82;;;1.90;;
16294;SDS011;8255;49.560;8.244;2023-03-31T01:43:39;4.13;;;1.67;;
16294;SDS011;8255;49.560;8.244;2023-03-31T01:46:09;5.10;;;2.70;;
16294;SDS011;8255;49.560;8.244;2023-03-31T01:48:38;7.57;;;2.05;;
16294;SDS011;8255;49.560;8.244;2023-03-31T01:51:06;7.35;;;1.70;;
16294;SDS011;8255;49.560;8.244;2023-03-31T01:53:39;5.72;;;2.10;;
16294;SDS011;8255;49.560;8.244;2023-03-31T01:56:11;2.65;;;1.45;;
16294;SDS011;8255;49.560;8.244;2023-03-31T01:58:40;6.30;;;1.77;;
16294;SDS011;8255;49.560;8.244;2023-03-31T02:01:09;4.38;;;1.55;;
16294;SDS011;8255;49.560;8.244;2023-03-31T02:03:39;4.88;;;1.95;;
16294;SDS011;8255;49.560;8.244;2023-03-31T02:06:09;4.20;;;1.30;;
16294;SDS011;8255;49.560;8.244;2023-03-31T02:08:37;3.72;;;1.58;;
16294;SDS011;8255;49.560;8.244;2023-03-31T02:11:04;3.45;;;1.33;;
16294;SDS011;8255;49.560;8.244;2023-03-31T02:13:32;4.60;;;1.25;;
16294;SDS011;8255;49.560;8.244;2023-03-31T02:16:03;1.75;;;1.35;;
16294;SDS011;8255;49.560;8.244;2023-03-31T02:18:30;3.63;;;1.40;;
16294;SDS011;8255;49.560;8.244;2023-03-31T02:21:02;4.68;;;1.38;;
16294;SDS011;8255;49.560;8.244;2023-03-31T02:23:30;3.35;;;1.58;;
16294;SDS011;8255;49.560;8.244;2023-03-31T02:25:59;4.47;;;1.42;;
16294;SDS011;8255;49.560;8.244;2023-03-31T02:28:26;3.90;;;1.40;;
16294;SDS011;8255;49.560;8.244;2023-03-31T02:30:57;3.63;;;1.50;;
16294;SDS011;8255;49.560;8.244;2023-03-31T02:33:27;5.50;;;1.70;;
16294;SDS011;8255;49.560;8.244;2023-03-31T02:35:53;4.05;;;1.42;;
16294;SDS011;8255;49.560;8.244;2023-03-31T02:38:20;4.15;;;1.35;;
16294;SDS011;8255;49.560;8.244;2023-03-31T02:40:47;2.40;;;1.30;;
16294;SDS011;8255;49.560;8.244;2023-03-31T02:43:13;3.13;;;1.25;;
16294;SDS011;8255;49.560;8.244;2023-03-31T02:45:43;2.88;;;1.35;;
16294;SDS011;8255;49.560;8.244;2023-03-31T02:48:12;2.90;;;1.40;;
16294;SDS011;8255;49.560;8.244;2023-03-31T02:50:43;3.40;;;1.48;;
16294;SDS011;8255;49.560;8.244;2023-03-31T02:53:12;3.60;;;1.33;;
16294;SDS011;8255;49.560;8.244;2023-03-31T02:55:51;4.13;;;1.30;;
16294;SDS011;8255;49.560;8.244;2023-03-31T02:58:32;6.15;;;1.35;;
16294;SDS011;8255;49.560;8.244;2023-03-31T03:01:06;4.13;;;1.45;;
16294;SDS011;8255;49.560;8.244;2023-03-31T03:03:38;3.13;;;1.30;;
16294;SDS011;8255;49.560;8.244;2023-03-31T03:06:08;3.92;;;1.60;;
16294;SDS011;8255;49.560;8.244;2023-03-31T03:09:01;3.88;;;1.48;;
16294;SDS011;8255;49.560;8.244;2023-03-31T03:11:31;2.17;;;1.77;;
16294;SDS011;8255;49.560;8.244;2023-03-31T03:14:03;5.25;;;1.95;;
16294;SDS011;8255;49.560;8.244;2023-03-31T03:16:32;5.18;;;1.92;;
16294;SDS011;8255;49.560;8.244;2023-03-31T03:19:02;3.58;;;1.77;;
16294;SDS011;8255;49.560;8.244;2023-03-31T03:21:30;6.47;;;1.48;;
16294;SDS011;8255;49.560;8.244;2023-03-31T03:23:57;2.85;;;1.40;;
16294;SDS011;8255;49.560;8.244;2023-03-31T03:26:24;6.13;;;1.52;;
16294;SDS011;8255;49.560;8.244;2023-03-31T03:28:52;2.88;;;1.60;;
16294;SDS011;8255;49.560;8.244;2023-03-31T03:31:19;3.85;;;1.60;;
16294;SDS011;8255;49.560;8.244;2023-03-31T03:33:48;2.03;;;1.40;;
16294;SDS011;8255;49.560;8.244;2023-03-31T03:36:16;4.32;;;1.40;;
16294;SDS011;8255;49.560;8.244;2023-03-31T03:38:42;3.88;;;1.63;;
16294;SDS011;8255;49.560;8.244;2023-03-31T03:41:08;3.83;;;1.50;;
16294;SDS011;8255;49.560;8.244;2023-03-31T03:43:35;3.47;;;1.40;;
16294;SDS011;8255;49.560;8.244;2023-03-31T03:46:01;3.22;;;1.70;;
16294;SDS011;8255;49.560;8.244;2023-03-31T03:48:27;3.28;;;1.50;;
16294;SDS011;8255;49.560;8.244;2023-03-31T03:50:54;3.00;;;1.30;;
16294;SDS011;8255;49.560;8.244;2023-03-31T03:53:22;1.70;;;1.20;;
16294;SDS011;8255;49.560;8.244;2023-03-31T03:55:49;2.63;;;1.50;;
16294;SDS011;8255;49.560;8.244;2023-03-31T03:58:15;3.03;;;1.60;;
16294;SDS011;8255;49.560;8.244;2023-03-31T04:00:43;4.30;;;1.60;;
16294;SDS011;8255;49.560;8.244;2023-03-31T04:03:10;4.65;;;1.80;;
16294;SDS011;8255;49.560;8.244;2023-03-31T04:05:36;4.57;;;1.60;;
16294;SDS011;8255;49.560;8.244;2023-03-31T04:08:03;2.53;;;1.60;;
16294;SDS011;8255;49.560;8.244;2023-03-31T04:10:31;2.90;;;1.52;;
16294;SDS011;8255;49.560;8.244;2023-03-31T04:12:57;2.13;;;1.52;;
16294;SDS011;8255;49.560;8.244;2023-03-31T04:15:24;2.92;;;1.58;;
16294;SDS011;8255;49.560;8.244;2023-03-31T04:17:50;5.57;;;1.58;;
16294;SDS011;8255;49.560;8.244;2023-03-31T04:20:19;5.03;;;1.60;;
16294;SDS011;8255;49.560;8.244;2023-03-31T04:22:45;5.45;;;1.77;;
16294;SDS011;8255;49.560;8.244;2023-03-31T04:25:15;6.70;;;1.58;;
16294;SDS011;8255;49.560;8.244;2023-03-31T04:27:43;3.03;;;2.05;;
16294;SDS011;8255;49.560;8.244;2023-03-31T04:30:11;2.92;;;1.45;;
16294;SDS011;8255;49.560;8.244;2023-03-31T04:32:38;4.32;;;1.70;;
16294;SDS011;8255;49.560;8.244;2023-03-31T04:35:04;7.93;;;2.00;;
16294;SDS011;8255;49.560;8.244;2023-03-31T04:37:31;2.45;;;1.48;;
16294;SDS011;8255;49.560;8.244;2023-03-31T04:39:59;2.47;;;1.60;;
16294;SDS011;8255;49.560;8.244;2023-03-31T04:42:31;7.32;;;1.85;;
16294;SDS011;8255;49.560;8.244;2023-03-31T04:44:59;4.30;;;1.70;;
16294;SDS011;8255;49.560;8.244;2023-03-31T04:47:25;4.20;;;1.70;;
16294;SDS011;8255;49.560;8.244;2023-03-31T04:49:51;3.42;;;1.67;;
16294;SDS011;8255;49.560;8.244;2023-03-31T04:52:18;3.97;;;1.50;;
16294;SDS011;8255;49.560;8.244;2023-03-31T04:54:44;4.90;;;1.80;;
16294;SDS011;8255;49.560;8.244;2023-03-31T04:57:10;5.20;;;1.70;;
16294;SDS011;8255;49.560;8.244;2023-03-31T04:59:37;5.50;;;1.85;;
16294;SDS011;8255;49.560;8.244;2023-03-31T05:02:04;4.30;;;2.20;;
16294;SDS011;8255;49.560;8.244;2023-03-31T05:04:31;3.03;;;2.17;;
16294;SDS011;8255;49.560;8.244;2023-03-31T05:06:57;5.13;;;1.80;;
16294;SDS011;8255;49.560;8.244;2023-03-31T05:09:23;4.55;;;1.70;;
16294;SDS011;8255;49.560;8.244;2023-03-31T05:11:50;4.53;;;1.83;;
16294;SDS011;8255;49.560;8.244;2023-03-31T05:14:16;5.15;;;1.85;;
16294;SDS011;8255;49.560;8.244;2023-03-31T05:16:42;6.32;;;1.45;;
16294;SDS011;8255;49.560;8.244;2023-03-31T05:19:10;4.22;;;1.80;;
16294;SDS011;8255;49.560;8.244;2023-03-31T05:21:36;4.07;;;1.83;;
16294;SDS011;8255;49.560;8.244;2023-03-31T05:24:03;3.75;;;1.50;;
16294;SDS011;8255;49.560;8.244;2023-03-31T05:26:29;4.20;;;2.08;;
16294;SDS011;8255;49.560;8.244;2023-03-31T05:28:56;6.53;;;2.38;;
16294;SDS011;8255;49.560;8.244;2023-03-31T05:31:22;5.32;;;2.00;;
16294;SDS011;8255;49.560;8.244;2023-03-31T05:33:48;5.35;;;1.98;;
16294;SDS011;8255;49.560;8.244;2023-03-31T05:36:17;4.78;;;2.33;;
16294;SDS011;8255;49.560;8.244;2023-03-31T05:38:43;4.38;;;1.92;;
16294;SDS011;8255;49.560;8.244;2023-03-31T05:41:10;5.53;;;2.25;;
16294;SDS011;8255;49.560;8.244;2023-03-31T05:43:36;3.45;;;2.10;;
16294;SDS011;8255;49.560;8.244;2023-03-31T05:46:03;3.55;;;2.00;;
16294;SDS011;8255;49.560;8.244;2023-03-31T05:48:30;4.82;;;2.22;;
16294;SDS011;8255;49.560;8.244;2023-03-31T05:50:56;4.47;;;2.30;;
16294;SDS011;8255;49.560;8.244;2023-03-31T05:53:24;4.78;;;2.17;;
16294;SDS011;8255;49.560;8.244;2023-03-31T05:55:55;4.45;;;2.33;;
16294;SDS011;8255;49.560;8.244;2023-03-31T05:58:21;6.72;;;2.80;;
16294;SDS011;8255;49.560;8.244;2023-03-31T06:00:47;5.25;;;2.70;;
16294;SDS011;8255;49.560;8.244;2023-03-31T06:03:14;7.60;;;2.85;;
16294;SDS011;8255;49.560;8.244;2023-03-31T06:05:45;5.22;;;2.53;;
16294;SDS011;8255;49.560;8.244;2023-03-31T06:08:11;7.93;;;2.75;;
16294;SDS011;8255;49.560;8.244;2023-03-31T06:10:39;6.35;;;2.88;;
16294;SDS011;8255;49.560;8.244;2023-03-31T06:13:06;4.95;;;2.85;;
16294;SDS011;8255;49.560;8.244;2023-03-31T06:15:33;5.80;;;2.97;;
16294;SDS011;8255;49.560;8.244;2023-03-31T06:17:59;6.68;;;3.03;;
16294;SDS011;8255;49.560;8.244;2023-03-31T06:20:25;6.43;;;3.00;;
16294;SDS011;8255;49.560;8.244;2023-03-31T06:22:52;4.55;;;3.33;;
16294;SDS011;8255;49.560;8.244;2023-03-31T06:25:18;4.65;;;2.75;;
16294;SDS011;8255;49.560;8.244;2023-03-31T06:27:46;5.32;;;3.05;;
16294;SDS011;8255;49.560;8.244;2023-03-31T06:30:13;5.82;;;3.15;;
16294;SDS011;8255;49.560;8.244;2023-03-31T06:32:39;4.50;;;3.33;;
16294;SDS011;8255;49.560;8.244;2023-03-31T06:35:06;6.97;;;2.92;;
16294;SDS011;8255;49.560;8.244;2023-03-31T06:37:33;7.05;;;3.67;;
16294;SDS011;8255;49.560;8.244;2023-03-31T06:39:59;7.63;;;3.70;;
16294;SDS011;8255;49.560;8.244;2023-03-31T06:42:25;4.88;;;3.47;;
16294;SDS011;8255;49.560;8.244;2023-03-31T06:44:53;5.20;;;3.58;;
16294;SDS011;8255;49.560;8.244;2023-03-31T06:47:19;9.32;;;4.40;;
16294;SDS011;8255;49.560;8.244;2023-03-31T06:49:46;8.30;;;3.92;;
16294;SDS011;8255;49.560;8.244;2023-03-31T06:52:12;7.03;;;4.38;;
16294;SDS011;8255;49.560;8.244;2023-03-31T06:54:38;8.27;;;4.47;;
16294;SDS011;8255;49.560;8.244;2023-03-31T06:57:06;3.97;;;3.65;;
16294;SDS011;8255;49.560;8.244;2023-03-31T06:59:32;6.93;;;4.22;;
16294;SDS011;8255;49.560;8.244;2023-03-31T07:02:00;9.68;;;4.28;;
16294;SDS011;8255;49.560;8.244;2023-03-31T07:04:26;5.07;;;4.25;;
16294;SDS011;8255;49.560;8.244;2023-03-31T07:06:53;8.20;;;4.50;;
16294;SDS011;8255;49.560;8.244;2023-03-31T07:09:19;9.32;;;4.40;;
16294;SDS011;8255;49.560;8.244;2023-03-31T07:11:47;9.88;;;4.28;;
16294;SDS011;8255;49.560;8.244;2023-03-31T07:14:14;7.30;;;5.15;;
16294;SDS011;8255;49.560;8.244;2023-03-31T07:16:40;7.30;;;4.70;;
16294;SDS011;8255;49.560;8.244;2023-03-31T07:19:08;7.95;;;4.90;;
16294;SDS011;8255;49.560;8.244;2023-03-31T07:21:35;7.00;;;4.70;;
16294;SDS011;8255;49.560;8.244;2023-03-31T07:24:01;5.10;;;3.65;;
16294;SDS011;8255;49.560;8.244;2023-03-31T07:26:28;8.73;;;4.00;;
16294;SDS011;8255;49.560;8.244;2023-03-31T07:28:54;6.88;;;5.00;;
16294;SDS011;8255;49.560;8.244;2023-03-31T07:31:21;9.85;;;5.47;;
16294;SDS011;8255;49.560;8.244;2023-03-31T07:33:48;7.60;;;4.93;;
16294;SDS011;8255;49.560;8.244;2023-03-31T07:36:15;5.65;;;4.68;;
16294;SDS011;8255;49.560;8.244;2023-03-31T07:38:42;10.23;;;4.60;;
16294;SDS011;8255;49.560;8.244;2023-03-31T07:41:10;6.18;;;4.90;;
16294;SDS011;8255;49.560;8.244;2023-03-31T07:43:36;8.10;;;4.28;;
16294;SDS011;8255;49.560;8.244;2023-03-31T07:46:04;7.75;;;5.40;;
16294;SDS011;8255;49.560;8.244;2023-03-31T07:48:32;6.57;;;4.55;;
16294;SDS011;8255;49.560;8.244;2023-03-31T07:50:58;7.65;;;5.50;;
16294;SDS011;8255;49.560;8.244;2023-03-31T07:53:31;12.50;;;5.57;;
16294;SDS011;8255;49.560;8.244;2023-03-31T07:55:58;9.23;;;4.88;;
16294;SDS011;8255;49.560;8.244;2023-03-31T07:58:24;7.55;;;4.28;;
16294;SDS011;8255;49.560;8.244;2023-03-31T08:00:51;7.60;;;3.45;;
16294;SDS011;8255;49.560;8.244;2023-03-31T08:03:17;6.10;;;3.80;;
16294;SDS011;8255;49.560;8.244;2023-03-31T08:05:43;6.35;;;3.88;;
16294;SDS011;8255;49.560;8.244;2023-03-31T08:08:10;7.97;;;3.70;;
16294;SDS011;8255;49.560;8.244;2023-03-31T08:10:37;6.05;;;2.60;;
16294;SDS011;8255;49.560;8.244;2023-03-31T08:13:04;2.30;;;2.10;;
16294;SDS011;8255;49.560;8.244;2023-03-31T08:15:30;1.80;;;1.70;;
16294;SDS011;8255;49.560;8.244;2023-03-31T08:17:56;4.25;;;1.55;;
16294;SDS011;8255;49.560;8.244;2023-03-31T08:20:23;2.97;;;1.80;;
16294;SDS011;8255;49.560;8.244;2023-03-31T08:22:49;2.92;;;1.63;;
16294;SDS011;8255;49.560;8.244;2023-03-31T08:25:16;2.78;;;1.65;;
16294;SDS011;8255;49.560;8.244;2023-03-31T08:27:44;3.10;;;1.75;;
16294;SDS011;8255;49.560;8.244;2023-03-31T08:30:13;1.83;;;1.50;;
16294;SDS011;8255;49.560;8.244;2023-03-31T08:32:39;5.53;;;1.90;;
16294;SDS011;8255;49.560;8.244;2023-03-31T08:35:06;4.30;;;1.98;;
16294;SDS011;8255;49.560;8.244;2023-03-31T08:37:33;3.72;;;2.15;;
16294;SDS011;8255;49.560;8.244;2023-03-31T08:40:00;3.75;;;1.92;;
16294;SDS011;8255;49.560;8.244;2023-03-31T08:42:31;3.25;;;2.20;;
16294;SDS011;8255;49.560;8.244;2023-03-31T08:45:02;6.85;;;2.50;;
16294;SDS011;8255;49.560;8.244;2023-03-31T08:47:31;3.78;;;2.45;;
16294;SDS011;8255;49.560;8.244;2023-03-31T08:49:59;4.53;;;2.05;;
16294;SDS011;8255;49.560;8.244;2023-03-31T08:52:30;3.90;;;2.22;;
16294;SDS011;8255;49.560;8.244;2023-03-31T08:54:58;4.88;;;2.20;;
16294;SDS011;8255;49.560;8.244;2023-03-31T08:57:27;3.72;;;2.42;;
16294;SDS011;8255;49.560;8.244;2023-03-31T08:59:55;3.45;;;2.15;;
16294;SDS011;8255;49.560;8.244;2023-03-31T09:02:31;8.52;;;2.50;;
16294;SDS011;8255;49.560;8.244;2023-03-31T09:07:43;3.55;;;1.70;;
16294;SDS011;8255;49.560;8.244;2023-03-31T09:10:20;5.22;;;1.88;;
16294;SDS011;8255;49.560;8.244;2023-03-31T09:12:50;3.28;;;2.08;;
16294;SDS011;8255;49.560;8.244;2023-03-31T09:15:21;8.90;;;2.78;;
16294;SDS011;8255;49.560;8.244;2023-03-31T09:17:51;4.43;;;1.80;;
16294;SDS011;8255;49.560;8.244;2023-03-31T09:20:20;5.40;;;2.08;;
16294;SDS011;8255;49.560;8.244;2023-03-31T09:22:49;10.35;;;2.13;;
16294;SDS011;8255;49.560;8.244;2023-03-31T09:25:17;3.95;;;1.90;;
16294;SDS011;8255;49.560;8.244;2023-03-31T09:27:45;2.95;;;1.70;;
16294;SDS011;8255;49.560;8.244;2023-03-31T09:30:13;2.72;;;1.23;;
16294;SDS011;8255;49.560;8.244;2023-03-31T09:32:42;1.63;;;1.15;;
16294;SDS011;8255;49.560;8.244;2023-03-31T09:35:14;2.67;;;1.65;;
16294;SDS011;8255;49.560;8.244;2023-03-31T09:37:41;3.70;;;1.60;;
16294;SDS011;8255;49.560;8.244;2023-03-31T09:40:12;4.25;;;1.52;;
16294;SDS011;8255;49.560;8.244;2023-03-31T09:42:40;2.92;;;1.50;;
16294;SDS011;8255;49.560;8.244;2023-03-31T09:45:11;5.00;;;1.50;;
16294;SDS011;8255;49.560;8.244;2023-03-31T09:47:39;1.48;;;1.38;;
16294;SDS011;8255;49.560;8.244;2023-03-31T09:50:07;2.83;;;1.70;;
16294;SDS011;8255;49.560;8.244;2023-03-31T09:52:36;2.70;;;1.48;;
16294;SDS011;8255;49.560;8.244;2023-03-31T09:55:03;3.63;;;1.35;;
16294;SDS011;8255;49.560;8.244;2023-03-31T09:57:32;3.65;;;1.38;;
16294;SDS011;8255;49.560;8.244;2023-03-31T10:00:04;3.80;;;1.58;;
16294;SDS011;8255;49.560;8.244;2023-03-31T10:02:37;1.75;;;1.40;;
16294;SDS011;8255;49.560;8.244;2023-03-31T10:05:06;1.60;;;1.30;;
16294;SDS011;8255;49.560;8.244;2023-03-31T10:07:33;3.00;;;1.30;;
16294;SDS011;8255;49.560;8.244;2023-03-31T10:10:01;3.50;;;1.50;;
16294;SDS011;8255;49.560;8.244;2023-03-31T10:12:28;2.72;;;1.63;;
16294;SDS011;8255;49.560;8.244;2023-03-31T10:15:02;5.43;;;1.48;;
16294;SDS011;8255;49.560;8.244;2023-03-31T10:17:37;2.67;;;1.40;;
16294;SDS011;8255;49.560;8.244;2023-03-31T10:20:16;4.03;;;1.83;;
16294;SDS011;8255;49.560;8.244;2023-03-31T10:22:44;4.63;;;1.88;;
16294;SDS011;8255;49.560;8.244;2023-03-31T10:25:14;7.53;;;2.00;;
16294;SDS011;8255;49.560;8.244;2023-03-31T10:27:41;4.97;;;2.10;;
16294;SDS011;8255;49.560;8.244;2023-03-31T10:30:09;5.35;;;2.17;;
16294;SDS011;8255;49.560;8.244;2023-03-31T10:32:37;5.65;;;1.77;;
16294;SDS011;8255;49.560;8.244;2023-03-31T10:35:19;3.78;;;1.98;;
16294;SDS011;8255;49.560;8.244;2023-03-31T10:37:47;6.10;;;2.20;;
16294;SDS011;8255;49.560;8.244;2023-03-31T10:40:17;4.35;;;2.10;;
16294;SDS011;8255;49.560;8.244;2023-03-31T10:42:45;6.07;;;1.90;;
16294;SDS011;8255;49.560;8.244;2023-03-31T10:45:12;5.07;;;1.95;;
16294;SDS011;8255;49.560;8.244;2023-03-31T10:47:39;5.55;;;2.30;;
16294;SDS011;8255;49.560;8.244;2023-03-31T10:50:08;5.95;;;2.00;;
16294;SDS011;8255;49.560;8.244;2023-03-31T10:52:42;5.55;;;2.25;;
16294;SDS011;8255;49.560;8.244;2023-03-31T10:55:10;5.30;;;1.98;;
16294;SDS011;8255;49.560;8.244;2023-03-31T10:57:39;5.05;;;2.30;;
16294;SDS011;8255;49.560;8.244;2023-03-31T11:00:15;4.90;;;1.77;;
16294;SDS011;8255;49.560;8.244;2023-03-31T11:02:55;3.97;;;1.60;;
16294;SDS011;8255;49.560;8.244;2023-03-31T11:05:25;3.40;;;1.60;;
16294;SDS011;8255;49.560;8.244;2023-03-31T11:07:58;2.90;;;1.08;;
16294;SDS011;8255;49.560;8.244;2023-03-31T11:10:30;2.50;;;1.02;;
16294;SDS011;8255;49.560;8.244;2023-03-31T11:13:01;3.58;;;1.20;;
16294;SDS011;8255;49.560;8.244;2023-03-31T11:15:32;2.50;;;1.30;;
16294;SDS011;8255;49.560;8.244;2023-03-31T11:18:03;2.65;;;1.25;;
16294;SDS011;8255;49.560;8.244;2023-03-31T11:20:33;5.90;;;1.52;;
16294;SDS011;8255;49.560;8.244;2023-03-31T11:23:04;1.83;;;1.00;;
16294;SDS011;8255;49.560;8.244;2023-03-31T11:25:33;2.38;;;1.40;;
16294;SDS011;8255;49.560;8.244;2023-03-31T11:28:13;3.72;;;1.55;;
16294;SDS011;8255;49.560;8.244;2023-03-31T11:30:44;3.63;;;1.42;;
16294;SDS011;8255;49.560;8.244;2023-03-31T11:33:20;2.15;;;1.17;;
16294;SDS011;8255;49.560;8.244;2023-03-31T11:35:54;3.78;;;1.52;;
16294;SDS011;8255;49.560;8.244;2023-03-31T11:38:28;5.30;;;1.40;;
16294;SDS011;8255;49.560;8.244;2023-03-31T11:40:58;2.65;;;1.30;;
16294;SDS011;8255;49.560;8.244;2023-03-31T11:43:28;2.13;;;1.15;;
16294;SDS011;8255;49.560;8.244;2023-03-31T11:45:57;4.60;;;1.40;;
16294;SDS011;8255;49.560;8.244;2023-03-31T11:48:25;5.50;;;1.98;;
16294;SDS011;8255;49.560;8.244;2023-03-31T11:50:55;3.15;;;1.35;;
16294;SDS011;8255;49.560;8.244;2023-03-31T11:53:23;3.38;;;1.52;;
16294;SDS011;8255;49.560;8.244;2023-03-31T11:55:52;3.95;;;1.70;;
16294;SDS011;8255;49.560;8.244;2023-03-31T11:58:20;1.45;;;1.25;;
16294;SDS011;8255;49.560;8.244;2023-03-31T12:00:50;3.55;;;1.60;;
16294;SDS011;8255;49.560;8.244;2023-03-31T12:03:18;2.47;;;1.25;;
16294;SDS011;8255;49.560;8.244;2023-03-31T12:05:47;4.18;;;1.30;;
16294;SDS011;8255;49.560;8.244;2023-03-31T12:08:15;3.17;;;1.38;;
16294;SDS011;8255;49.560;8.244;2023-03-31T12:10:42;1.75;;;1.50;;
16294;SDS011;8255;49.560;8.244;2023-03-31T12:13:15;2.38;;;1.33;;
16294;SDS011;8255;49.560;8.244;2023-03-31T12:15:49;2.47;;;1.20;;
16294;SDS011;8255;49.560;8.244;2023-03-31T12:18:19;2.55;;;1.50;;
16294;SDS011;8255;49.560;8.244;2023-03-31T12:20:49;3.47;;;1.27;;
16294;SDS011;8255;49.560;8.244;2023-03-31T12:23:16;2.55;;;1.10;;
16294;SDS011;8255;49.560;8.244;2023-03-31T12:25:46;5.03;;;1.05;;
16294;SDS011;8255;49.560;8.244;2023-03-31T12:28:16;1.58;;;1.15;;
16294;SDS011;8255;49.560;8.244;2023-03-31T12:30:43;4.10;;;1.48;;
16294;SDS011;8255;49.560;8.244;2023-03-31T12:33:13;2.80;;;1.10;;
16294;SDS011;8255;49.560;8.244;2023-03-31T12:35:43;4.30;;;1.52;;
16294;SDS011;8255;49.560;8.244;2023-03-31T12:38:18;2.30;;;1.08;;
16294;SDS011;8255;49.560;8.244;2023-03-31T12:40:51;2.40;;;1.02;;
16294;SDS011;8255;49.560;8.244;2023-03-31T12:46:06;5.28;;;1.30;;
16294;SDS011;8255;49.560;8.244;2023-03-31T12:51:19;2.10;;;0.90;;
16294;SDS011;8255;49.560;8.244;2023-03-31T12:53:52;2.22;;;1.52;;
16294;SDS011;8255;49.560;8.244;2023-03-31T12:56:21;1.60;;;1.15;;
16294;SDS011;8255;49.560;8.244;2023-03-31T12:58:47;2.65;;;1.10;;
16294;SDS011;8255;49.560;8.244;2023-03-31T13:01:14;2.75;;;1.08;;
16294;SDS011;8255;49.560;8.244;2023-03-31T13:03:45;3.15;;;1.25;;
16294;SDS011;8255;49.560;8.244;2023-03-31T13:08:55;2.70;;;1.60;;
16294;SDS011;8255;49.560;8.244;2023-03-31T13:11:22;3.03;;;1.35;;
16294;SDS011;8255;49.560;8.244;2023-03-31T13:14:00;2.50;;;1.05;;
16294;SDS011;8255;49.560;8.244;2023-03-31T13:16:27;1.48;;;1.13;;
16294;SDS011;8255;49.560;8.244;2023-03-31T13:18:53;3.03;;;1.30;;
16294;SDS011;8255;49.560;8.244;2023-03-31T13:21:20;2.55;;;1.30;;
16294;SDS011;8255;49.560;8.244;2023-03-31T13:23:47;2.47;;;1.67;;
16294;SDS011;8255;49.560;8.244;2023-03-31T13:29:17;3.53;;;1.30;;
16294;SDS011;8255;49.560;8.244;2023-03-31T13:34:29;1.90;;;1.25;;
16294;SDS011;8255;49.560;8.244;2023-03-31T13:36:58;4.28;;;1.38;;
16294;SDS011;8255;49.560;8.244;2023-03-31T13:39:33;3.65;;;1.10;;
16294;SDS011;8255;49.560;8.244;2023-03-31T13:42:04;2.15;;;1.45;;
16294;SDS011;8255;49.560;8.244;2023-03-31T13:44:37;3.55;;;1.25;;
16294;SDS011;8255;49.560;8.244;2023-03-31T13:50:03;4.13;;;1.73;;
16294;SDS011;8255;49.560;8.244;2023-03-31T13:52:38;4.97;;;1.48;;
16294;SDS011;8255;49.560;8.244;2023-03-31T13:55:27;3.58;;;1.73;;
16294;SDS011;8255;49.560;8.244;2023-03-31T13:58:18;2.47;;;1.40;;
16294;SDS011;8255;49.560;8.244;2023-03-31T14:00:50;2.83;;;1.40;;
16294;SDS011;8255;49.560;8.244;2023-03-31T14:03:34;2.70;;;1.30;;
16294;SDS011;8255;49.560;8.244;2023-03-31T14:06:03;2.70;;;2.05;;
16294;SDS011;8255;49.560;8.244;2023-03-31T14:08:37;3.92;;;1.50;;
16294;SDS011;8255;49.560;8.244;2023-03-31T14:11:14;5.40;;;1.60;;
16294;SDS011;8255;49.560;8.244;2023-03-31T14:13:41;2.78;;;1.20;;
16294;SDS011;8255;49.560;8.244;2023-03-31T14:16:09;2.53;;;1.10;;
16294;SDS011;8255;49.560;8.244;2023-03-31T14:18:36;2.40;;;1.35;;
16294;SDS011;8255;49.560;8.244;2023-03-31T14:21:07;3.05;;;1.40;;
16294;SDS011;8255;49.560;8.244;2023-03-31T14:23:39;2.65;;;1.20;;
16294;SDS011;8255;49.560;8.244;2023-03-31T14:26:09;2.38;;;1.35;;
16294;SDS011;8255;49.560;8.244;2023-03-31T14:28:45;3.92;;;1.67;;
16294;SDS011;8255;49.560;8.244;2023-03-31T14:31:18;4.40;;;1.50;;
16294;SDS011;8255;49.560;8.244;2023-03-31T14:34:03;2.75;;;1.10;;
16294;SDS011;8255;49.560;8.244;2023-03-31T14:36:33;3.22;;;1.45;;
16294;SDS011;8255;49.560;8.244;2023-03-31T14:39:03;5.15;;;1.60;;
16294;SDS011;8255;49.560;8.244;2023-03-31T14:41:30;3.50;;;1.33;;
16294;SDS011;8255;49.560;8.244;2023-03-31T14:43:59;2.90;;;1.25;;
16294;SDS011;8255;49.560;8.244;2023-03-31T14:46:29;3.50;;;1.40;;
16294;SDS011;8255;49.560;8.244;2023-03-31T14:48:56;2.65;;;1.30;;
16294;SDS011;8255;49.560;8.244;2023-03-31T14:51:24;3.90;;;1.45;;
16294;SDS011;8255;49.560;8.244;2023-03-31T14:53:54;2.75;;;1.30;;
16294;SDS011;8255;49.560;8.244;2023-03-31T14:56:22;3.28;;;1.40;;
16294;SDS011;8255;49.560;8.244;2023-03-31T14:58:50;3.58;;;2.10;;
16294;SDS011;8255;49.560;8.244;2023-03-31T15:01:28;3.40;;;1.80;;
16294;SDS011;8255;49.560;8.244;2023-03-31T15:04:01;4.05;;;1.52;;
16294;SDS011;8255;49.560;8.244;2023-03-31T15:06:30;4.65;;;1.65;;
16294;SDS011;8255;49.560;8.244;2023-03-31T15:08:59;3.13;;;1.30;;
16294;SDS011;8255;49.560;8.244;2023-03-31T15:11:26;4.05;;;1.15;;
16294;SDS011;8255;49.560;8.244;2023-03-31T15:13:53;4.32;;;1.58;;
16294;SDS011;8255;49.560;8.244;2023-03-31T15:16:26;4.47;;;1.60;;
16294;SDS011;8255;49.560;8.244;2023-03-31T15:18:54;6.25;;;1.50;;
16294;SDS011;8255;49.560;8.244;2023-03-31T15:21:22;15.98;;;10.50;;
16294;SDS011;8255;49.560;8.244;2023-03-31T15:23:49;5.18;;;1.85;;
16294;SDS011;8255;49.560;8.244;2023-03-31T15:26:16;3.17;;;1.33;;
16294;SDS011;8255;49.560;8.244;2023-03-31T15:28:45;5.32;;;1.50;;
16294;SDS011;8255;49.560;8.244;2023-03-31T15:31:15;4.47;;;1.33;;